Time,TemperatureF,DewpointF,PressureIn,WindDirection,WindDirectionDegrees,WindSpeedMPH,WindSpeedGustMPH,Humidity,HourlyPrecipIn,Conditions,Clouds,dailyrainin,SoftwareType,DateUTC
2013-01-18 00:00:00,23.8,15.8,30.41,West,276,6.0,10.0,71,0.00,,---,0.00,VWS V14.01,2013-01-18 05:00:00,
2013-01-18 00:30:00,24.2,17.1,30.40,West,260,5.0,8.0,74,0.00,,---,0.00,VWS V14.00,2013-01-18 05:30:00,
2013-01-18 01:00:00,23.8,15.8,30.41,West,276,6.0,10.0,71,0.00,,---,0.00,VWS V14.00,2013-01-18 06:00:00,
2013-01-18 01:30:00,23.1,15.8,30.42,West,270,7.0,8.0,73,0.00,,---,0.00,VWS V14.00,2013-01-18 06:30:00,
2013-01-18 02:00:00,22.8,15.5,30.43,West,281,4.0,8.0,73,0.00,,---,0.00,VWS V14.00,2013-01-18 07:00:00,
2013-01-18 02:30:00,22.7,15.7,30.45,West,264,5.0,8.0,74,0.00,,---,0.00,VWS V14.00,2013-01-18 07:30:00,
2013-01-18 03:00:00,22.3,15.3,30.45,WNW,285,5.0,7.0,74,0.00,,---,0.00,VWS V14.00,2013-01-18 08:00:00,
2013-01-18 03:30:00,22.0,15.3,30.46,WSW,253,4.0,6.0,75,0.00,,---,0.00,VWS V14.00,2013-01-18 08:30:00,
2013-01-18 04:00:00,20.6,14.6,30.46,WSW,238,2.0,5.0,77,0.00,,---,0.00,VWS V14.00,2013-01-18 09:00:00,
2013-01-18 04:30:00,19.9,14.7,30.45,SW,219,3.0,6.0,80,0.00,,---,0.00,VWS V14.00,2013-01-18 09:30:00,
2013-01-18 05:00:00,20.0,14.8,30.45,SW,232,2.0,6.0,80,0.00,,---,0.00,VWS V14.00,2013-01-18 10:00:00,
2013-01-18 05:30:00,19.8,14.9,30.45,SW,221,1.0,6.0,81,0.00,,---,0.00,VWS V14.00,2013-01-18 10:30:00,
2013-01-18 06:00:00,20.0,15.4,30.45,SW,233,4.0,5.0,82,0.00,,---,0.00,VWS V14.00,2013-01-18 11:00:00,
2013-01-18 06:30:00,20.1,15.5,30.46,SW,214,0.0,5.0,82,0.00,,---,0.00,VWS V14.00,2013-01-18 11:30:00,
2013-01-18 07:00:00,19.9,15.3,30.46,SW,218,0.0,4.0,82,0.00,,---,0.00,VWS V14.00,2013-01-18 12:00:00,
2013-01-18 07:30:00,18.9,15.4,30.46,SSW,211,0.0,2.0,86,0.00,,---,0.00,VWS V14.00,2013-01-18 12:30:00,
2013-01-18 08:00:00,19.1,15.3,30.46,SSE,150,1.0,2.0,85,0.00,,---,0.00,VWS V14.00,2013-01-18 13:00:00,
2013-01-18 08:30:00,19.9,16.1,30.46,SE,145,0.0,3.0,85,0.00,,---,0.00,VWS V14.00,2013-01-18 13:30:00,
2013-01-18 09:00:00,20.4,16.6,30.47,SSW,194,2.0,3.0,85,0.00,,---,0.00,VWS V14.00,2013-01-18 14:00:00,
2013-01-18 09:30:00,22.4,18.3,30.47,SSE,161,3.0,5.0,84,0.00,,---,0.00,VWS V14.00,2013-01-18 14:30:00,
2013-01-18 10:00:00,23.7,19.3,30.47,SW,214,3.0,7.0,83,0.00,,---,0.00,VWS V14.00,2013-01-18 15:00:00,
2013-01-18 10:30:00,26.2,20.6,30.45,SE,141,1.0,6.0,79,0.00,,---,0.00,VWS V14.00,2013-01-18 15:30:00,
2013-01-18 11:00:00,27.8,21.5,30.45,SSW,202,2.0,8.0,77,0.00,,---,0.00,VWS V14.00,2013-01-18 16:00:00,
2013-01-18 11:30:00,29.2,22.0,30.43,SW,221,4.0,10.0,74,0.00,,---,0.00,VWS V14.00,2013-01-18 16:30:00,
2013-01-18 12:00:00,30.5,22.9,30.41,South,176,3.0,10.0,73,0.00,,---,0.00,VWS V14.00,2013-01-18 17:00:00,
2013-01-18 12:30:00,32.1,23.1,30.38,WSW,245,7.0,14.0,69,0.00,,---,0.00,VWS V14.00,2013-01-18 17:30:00,
2013-01-18 13:00:00,33.3,23.5,30.35,SW,216,5.0,14.0,67,0.00,,---,0.00,VWS V14.00,2013-01-18 18:00:00,
2013-01-18 13:30:00,33.9,23.8,30.33,SW,229,5.0,14.0,66,0.00,,---,0.00,VWS V14.00,2013-01-18 18:30:00,
2013-01-18 14:00:00,34.5,24.3,30.31,SW,228,6.0,13.0,66,0.00,,---,0.00,VWS V14.00,2013-01-18 19:00:00,
2013-01-18 14:30:00,36.9,25.9,30.28,SW,214,6.0,13.0,64,0.00,,---,0.00,VWS V14.00,2013-01-18 19:30:00,
2013-01-18 15:00:00,38.1,25.1,30.26,SSW,195,4.0,15.0,59,0.00,,---,0.00,VWS V14.00,2013-01-18 20:00:00,
2013-01-18 15:30:00,38.1,24.6,30.24,South,173,11.0,16.0,58,0.00,,---,0.00,VWS V14.00,2013-01-18 20:30:00,
2013-01-18 16:00:00,38.4,24.5,30.22,SSW,212,9.0,15.0,57,0.00,,---,0.00,VWS V14.00,2013-01-18 21:00:00,
2013-01-18 16:30:00,38.7,25.2,30.20,South,181,5.0,13.0,58,0.00,,---,0.00,VWS V14.00,2013-01-18 21:30:00,
2013-01-18 17:00:00,38.5,24.6,30.19,SW,217,7.0,12.0,57,0.00,,---,0.00,VWS V14.00,2013-01-18 22:00:00,
2013-01-18 17:30:00,37.3,23.9,30.17,South,186,3.0,10.0,58,0.00,,---,0.00,VWS V14.00,2013-01-18 22:30:00,
2013-01-18 18:00:00,35.5,23.4,30.16,SSW,207,3.0,15.0,61,0.00,,---,0.00,VWS V14.00,2013-01-18 23:00:00,
2013-01-18 18:30:00,35.5,23.0,30.14,SSW,212,4.0,12.0,60,0.00,,---,0.00,VWS V14.00,2013-01-18 23:30:00,
2013-01-18 19:00:00,35.5,23.0,30.13,SSW,193,4.0,14.0,60,0.00,,---,0.00,VWS V14.00,2013-01-19 00:00:00,
2013-01-18 19:30:00,35.8,23.7,30.11,South,172,2.0,15.0,61,0.00,,---,0.00,VWS V14.00,2013-01-19 00:30:00,
2013-01-18 20:00:00,36.1,24.0,30.09,SSW,194,4.0,15.0,61,0.00,,---,0.00,VWS V14.00,2013-01-19 01:00:00,
2013-01-18 20:30:00,37.0,24.4,30.09,SSW,212,8.0,13.0,60,0.00,,---,0.00,VWS V14.00,2013-01-19 01:30:00,
2013-01-18 21:00:00,38.1,25.1,30.10,South,190,8.0,19.0,59,0.00,,---,0.00,VWS V14.00,2013-01-19 02:00:00,
2013-01-18 21:30:00,37.8,25.6,30.09,SSE,166,6.0,16.0,61,0.00,,---,0.00,VWS V14.00,2013-01-19 02:30:00,
2013-01-18 22:00:00,38.0,26.5,30.08,SSW,203,6.0,17.0,63,0.00,,---,0.00,VWS V14.00,2013-01-19 03:00:00,
2013-01-18 22:30:00,37.9,26.8,30.07,SW,226,5.0,15.0,64,0.00,,---,0.00,VWS V14.00,2013-01-19 03:30:00,
2013-01-18 23:00:00,38.2,27.5,30.07,SSW,212,9.0,16.0,65,0.00,,---,0.00,VWS V14.00,2013-01-19 04:00:00,
2013-01-18 23:30:00,38.1,27.8,30.06,SW,221,10.0,15.0,66,0.00,,---,0.00,VWS V14.00,2013-01-19 04:30:00,